createdAt,value
2023-05-13T00:00:58.089Z,65.91
2023-05-13T00:01:58.089Z,65.71
2023-05-13T00:02:58.190Z,66.22
2023-05-13T00:03:58.080Z,66.12
2023-05-13T00:04:58.042Z,65.41
2023-05-13T00:05:58.064Z,65.91
2023-05-13T00:06:58.003Z,65.51
2023-05-13T00:07:58.020Z,65.91
2023-05-13T00:08:58.008Z,66.22
2023-05-13T00:09:58.024Z,65.71
2023-05-13T00:10:57.965Z,66.22
2023-05-13T00:11:57.980Z,66.52
2023-05-13T00:12:57.944Z,65.91
2023-05-13T00:13:57.984Z,65.91
2023-05-13T00:14:57.942Z,66.32
2023-05-13T00:15:57.969Z,66.52
2023-05-13T00:16:57.917Z,66.93
2023-05-13T00:17:57.928Z,66.52
2023-05-13T00:18:57.946Z,65.61
2023-05-13T00:19:57.891Z,65.78
2023-05-13T00:20:57.851Z,65.58
2023-05-13T00:21:57.901Z,65.58
2023-05-13T00:22:57.828Z,65.78
2023-05-13T00:23:57.847Z,65.99
2023-05-13T00:24:57.828Z,65.37
2023-05-13T00:25:57.983Z,65.27
2023-05-13T00:26:57.793Z,65.17
2023-05-13T00:27:57.809Z,65.27
2023-05-13T00:28:57.774Z,65.48
2023-05-13T00:29:58.313Z,67.20
2023-05-13T00:30:57.750Z,66.69
2023-05-13T00:31:57.790Z,67.03
2023-05-13T00:32:57.750Z,67.50
2023-05-13T00:33:57.741Z,67.33
2023-05-13T00:34:57.726Z,67.44
2023-05-13T00:35:57.749Z,68.35
2023-05-13T00:36:57.699Z,68.05
2023-05-13T00:37:57.668Z,68.55
2023-05-13T00:38:57.698Z,69.26
2023-05-13T00:39:57.660Z,69.50
2023-05-13T00:40:57.660Z,70.11
2023-05-13T00:42:02.846Z,70.92
2023-05-13T00:42:57.636Z,72.14
2023-05-13T00:43:57.599Z,72.78
2023-05-13T00:44:57.640Z,73.70
2023-05-13T00:45:57.620Z,74.62
2023-05-13T00:46:57.590Z,75.53
2023-05-13T00:47:57.606Z,76.25
2023-05-13T00:48:57.600Z,76.95
2023-05-13T00:49:57.538Z,78.08
2023-05-13T00:50:57.557Z,78.21
2023-05-13T00:51:57.537Z,78.62
2023-05-13T00:52:57.590Z,78.82
2023-05-13T00:53:57.562Z,78.92
2023-05-13T00:54:57.497Z,78.31
2023-05-13T00:55:57.481Z,78.21
2023-05-13T00:56:57.507Z,78.92
2023-05-13T00:57:57.453Z,78.72
2023-05-13T00:58:57.462Z,77.81
2023-05-13T00:59:57.449Z,78.11
2023-05-13T01:00:57.486Z,78.31
2023-05-13T01:01:57.433Z,78.72
2023-05-13T01:02:57.535Z,79.13
2023-05-13T01:03:57.383Z,79.23
2023-05-13T01:04:57.399Z,79.43
2023-05-13T01:05:57.363Z,79.23
2023-05-13T01:06:57.407Z,78.31
2023-05-13T01:07:57.345Z,69.77
2023-05-13T01:08:57.359Z,68.75
2023-05-13T01:09:57.330Z,68.55
2023-05-13T01:10:57.336Z,68.85
2023-05-13T01:11:57.335Z,68.85
2023-05-13T01:12:58.020Z,68.85
2023-05-13T01:13:57.291Z,68.75
2023-05-13T01:14:57.299Z,68.55
2023-05-13T01:15:57.255Z,69.26
2023-05-13T01:16:57.300Z,69.19
2023-05-13T01:17:58.105Z,69.90
2023-05-13T01:18:57.270Z,70.41
2023-05-13T01:19:57.211Z,71.16
2023-05-13T01:20:57.229Z,71.97
2023-05-13T01:21:57.190Z,72.48
2023-05-13T01:22:57.990Z,73.19
2023-05-13T01:23:57.268Z,73.91
2023-05-13T01:24:57.197Z,75.16
2023-05-13T01:25:57.156Z,75.88
2023-05-13T01:26:57.169Z,76.69
2023-05-13T01:27:57.162Z,77.24
2023-05-13T01:28:57.182Z,77.14
2023-05-13T01:30:11.966Z,77.48
2023-05-13T01:30:57.280Z,77.48
2023-05-13T01:31:57.081Z,77.78
2023-05-13T01:32:57.123Z,78.30
2023-05-13T01:33:57.086Z,78.30
2023-05-13T01:34:57.084Z,78.30
2023-05-13T01:35:57.047Z,78.39
2023-05-13T01:36:57.062Z,78.39
2023-05-13T01:37:57.044Z,78.50
2023-05-13T01:38:57.035Z,78.50
2023-05-13T01:39:57.024Z,78.09
2023-05-13T01:40:57.033Z,78.16
2023-05-13T01:41:56.980Z,78.26
2023-05-13T01:42:56.990Z,78.16
2023-05-13T01:43:56.972Z,77.75
2023-05-13T01:44:56.997Z,77.34
2023-05-13T01:45:56.938Z,77.20
2023-05-13T01:46:57.156Z,75.98
2023-05-13T01:47:57.012Z,76.18
2023-05-13T01:48:56.934Z,74.96
2023-05-13T01:49:56.901Z,74.15
2023-05-13T01:50:56.937Z,73.54
2023-05-13T01:51:56.906Z,73.74
2023-05-13T01:52:56.883Z,73.43
2023-05-13T01:53:56.886Z,73.02
2023-05-13T01:54:56.876Z,73.16
2023-05-13T01:55:56.831Z,73.06
2023-05-13T01:56:56.843Z,73.26
2023-05-13T01:57:56.842Z,73.40
2023-05-13T01:58:56.852Z,73.50
2023-05-13T01:59:56.797Z,73.81
2023-05-13T02:00:56.812Z,74.11
2023-05-13T02:01:56.857Z,74.62
2023-05-13T02:02:56.876Z,74.83
2023-05-13T02:03:56.895Z,74.83
2023-05-13T02:04:56.758Z,75.07
2023-05-13T02:05:56.730Z,75.07
2023-05-13T02:06:56.740Z,74.96
2023-05-13T02:07:56.738Z,74.76
2023-05-13T02:08:56.713Z,74.45
2023-05-13T02:09:56.716Z,74.55
2023-05-13T02:10:56.724Z,74.55
2023-05-13T02:11:56.664Z,74.55
2023-05-13T02:12:56.679Z,74.35
2023-05-13T02:13:56.634Z,74.45
2023-05-13T02:14:56.659Z,74.45
2023-05-13T02:15:56.749Z,74.55
2023-05-13T02:16:56.667Z,74.76
2023-05-13T02:17:56.650Z,74.76
2023-05-13T02:18:56.733Z,74.96
2023-05-13T02:19:56.590Z,75.07
2023-05-13T02:20:56.599Z,74.86
2023-05-13T02:21:56.584Z,74.86
2023-05-13T02:22:56.579Z,74.86
2023-05-13T02:23:56.543Z,74.96
2023-05-13T02:24:56.576Z,75.37
2023-05-13T02:25:56.518Z,76.90
2023-05-13T02:26:56.529Z,77.92
2023-05-13T02:27:56.534Z,78.23
2023-05-13T02:28:56.524Z,78.53
2023-05-13T02:29:56.501Z,78.74
2023-05-13T02:30:56.493Z,78.43
2023-05-13T02:31:56.459Z,76.29
2023-05-13T02:32:56.468Z,75.57
2023-05-13T02:33:56.464Z,74.66
2023-05-13T02:34:56.448Z,74.66
2023-05-13T02:35:56.418Z,74.55
2023-05-13T02:36:56.423Z,74.55
2023-05-13T02:37:56.394Z,74.76
2023-05-13T02:38:56.447Z,74.96
2023-05-13T02:39:56.383Z,75.07
2023-05-13T02:40:56.392Z,75.07
2023-05-13T02:41:56.368Z,75.48
2023-05-13T02:42:56.365Z,75.27
2023-05-13T02:43:56.362Z,75.07
2023-05-13T02:44:56.353Z,74.96
2023-05-13T02:45:56.358Z,75.16
2023-05-13T02:46:56.322Z,75.27
2023-05-13T02:47:56.346Z,75.48
2023-05-13T02:48:56.314Z,75.68
2023-05-13T02:49:56.304Z,75.98
2023-05-13T02:50:56.316Z,76.50
2023-05-13T02:51:56.258Z,77.11
2023-05-13T02:52:56.278Z,78.02
2023-05-13T02:53:56.244Z,78.43
2023-05-13T02:54:56.260Z,78.74
2023-05-13T02:55:56.260Z,78.84
2023-05-13T02:56:56.239Z,78.53
2023-05-13T02:57:56.193Z,78.43
2023-05-13T02:58:56.207Z,78.23
2023-05-13T02:59:56.212Z,78.33
2023-05-13T03:00:56.195Z,79.25
2023-05-13T03:01:56.099Z,80.07
2023-05-13T03:02:56.274Z,80.78
2023-05-13T03:03:56.135Z,81.18
2023-05-13T03:04:56.178Z,82.14
2023-05-13T03:05:56.095Z,83.26
2023-05-13T03:06:56.076Z,84.33
2023-05-13T03:07:56.084Z,85.49
2023-05-13T03:08:56.116Z,86.51
2023-05-13T03:09:56.078Z,87.26
2023-05-13T03:10:56.042Z,87.77
2023-05-13T03:11:56.002Z,88.29
2023-05-13T03:12:56.028Z,88.70
2023-05-13T03:13:56.005Z,88.94
2023-05-13T03:14:56.054Z,89.15
2023-05-13T03:15:56.118Z,89.25
2023-05-13T03:16:55.964Z,89.25
2023-05-13T03:17:56.055Z,89.11
2023-05-13T03:18:56.030Z,88.90
2023-05-13T03:19:55.915Z,88.59
2023-05-13T03:20:55.954Z,88.39
2023-05-13T03:21:55.987Z,88.08
2023-05-13T03:22:55.904Z,87.84
2023-05-13T03:23:55.878Z,87.57
2023-05-13T03:24:55.882Z,87.47
2023-05-13T03:25:55.884Z,87.47
2023-05-13T03:26:55.867Z,87.67
2023-05-13T03:27:55.823Z,87.98
2023-05-13T03:28:55.837Z,88.08
2023-05-13T03:29:55.819Z,88.29
2023-05-13T03:30:55.916Z,88.53
2023-05-13T03:31:55.783Z,88.74
2023-05-13T03:32:55.842Z,88.64
2023-05-13T03:33:55.763Z,88.49
2023-05-13T03:34:55.794Z,88.39
2023-05-13T03:35:55.749Z,88.29
2023-05-13T03:36:55.762Z,88.08
2023-05-13T03:37:55.755Z,87.73
2023-05-13T03:38:55.732Z,87.23
2023-05-13T03:39:55.702Z,85.49
2023-05-13T03:40:55.710Z,83.75
2023-05-13T03:41:55.695Z,85.28
2023-05-13T03:42:55.720Z,82.53
2023-05-13T03:43:55.665Z,83.85
2023-05-13T03:44:55.682Z,85.38
2023-05-13T03:45:55.639Z,82.12
2023-05-13T03:46:55.728Z,81.10
2023-05-13T03:47:55.667Z,79.87
2023-05-13T03:48:55.678Z,79.87
2023-05-13T03:49:55.590Z,78.88
2023-05-13T03:50:55.601Z,79.19
2023-05-13T03:51:55.567Z,79.53
2023-05-13T03:52:55.580Z,79.74
2023-05-13T03:53:55.554Z,79.94
2023-05-13T03:54:55.587Z,80.05
2023-05-13T03:55:55.535Z,80.56
2023-05-13T03:56:55.537Z,80.87
2023-05-13T03:57:55.493Z,80.97
2023-05-13T03:58:55.522Z,81.17
2023-05-13T03:59:55.534Z,81.38
2023-05-13T04:00:55.527Z,81.99
2023-05-13T04:01:55.484Z,82.60
2023-05-13T04:02:55.677Z,83.36
2023-05-13T04:03:55.464Z,83.25
2023-05-13T04:04:55.474Z,83.46
2023-05-13T04:05:55.429Z,83.56
2023-05-13T04:06:55.438Z,83.66
2023-05-13T04:07:55.409Z,83.66
2023-05-13T04:08:55.461Z,83.76
2023-05-13T04:09:55.383Z,83.76
2023-05-13T04:10:55.422Z,83.76
2023-05-13T04:11:55.365Z,83.62
2023-05-13T04:12:55.398Z,83.42
2023-05-13T04:13:55.367Z,83.42
2023-05-13T04:14:55.357Z,83.32
2023-05-13T04:15:55.372Z,83.11
2023-05-13T04:16:55.425Z,83.32
2023-05-13T04:17:55.380Z,83.22
2023-05-13T04:18:55.427Z,83.01
2023-05-13T04:19:55.281Z,83.11
2023-05-13T04:20:55.316Z,83.32
2023-05-13T04:21:55.279Z,83.11
2023-05-13T04:22:55.278Z,83.22
2023-05-13T04:23:55.256Z,83.22
2023-05-13T04:24:55.256Z,83.32
2023-05-13T04:25:55.223Z,83.22
2023-05-13T04:26:55.233Z,83.42
2023-05-13T04:27:55.206Z,83.11
2023-05-13T04:28:55.224Z,82.81
2023-05-13T04:29:55.203Z,82.81
2023-05-13T04:30:55.186Z,83.11
2023-05-13T04:31:55.222Z,83.01
2023-05-13T04:32:55.224Z,82.60
2023-05-13T04:33:55.132Z,82.20
2023-05-13T04:34:55.151Z,82.50
2023-05-13T04:35:55.133Z,82.60
2023-05-13T04:36:55.124Z,82.60
2023-05-13T04:37:55.089Z,82.60
2023-05-13T04:38:55.098Z,82.40
2023-05-13T04:39:55.111Z,82.50
2023-05-13T04:40:55.083Z,81.95
2023-05-13T04:41:55.042Z,81.65
2023-05-13T04:42:55.262Z,81.34
2023-05-13T04:43:55.049Z,81.03
2023-05-13T04:44:55.038Z,80.93
2023-05-13T04:45:55.028Z,81.24
2023-05-13T04:46:55.028Z,81.27
2023-05-13T04:47:57.620Z,81.38
2023-05-13T04:48:55.021Z,81.48
2023-05-13T04:49:54.983Z,81.48
2023-05-13T04:50:54.990Z,81.68
2023-05-13T04:51:54.965Z,81.79
2023-05-13T04:52:55.017Z,81.88
2023-05-13T04:53:54.948Z,82.03
2023-05-13T04:54:54.908Z,82.34
2023-05-13T04:55:54.925Z,82.64
2023-05-13T04:56:54.908Z,82.43
2023-05-13T04:57:54.913Z,82.03
2023-05-13T04:58:54.868Z,82.23
2023-05-13T04:59:54.885Z,81.99
2023-05-13T05:00:54.889Z,81.88
2023-05-13T05:01:54.968Z,81.38
2023-05-13T05:02:54.882Z,81.21
2023-05-13T05:03:54.935Z,81.51
2023-05-13T05:04:54.808Z,81.62
2023-05-13T05:05:54.859Z,81.51
2023-05-13T05:06:54.790Z,81.41
2023-05-13T05:07:54.812Z,81.41
2023-05-13T05:08:54.755Z,81.17
2023-05-13T05:09:54.799Z,81.07
2023-05-13T05:10:54.763Z,81.17
2023-05-13T05:11:54.753Z,81.48
2023-05-13T05:12:54.722Z,81.68
2023-05-13T05:13:54.743Z,81.48
2023-05-13T05:14:54.748Z,81.58
2023-05-13T05:15:54.722Z,81.48
2023-05-13T05:16:54.715Z,81.68
2023-05-13T05:17:54.821Z,81.13
2023-05-13T05:18:54.697Z,81.24
2023-05-13T05:19:54.672Z,80.93
2023-05-13T05:20:54.666Z,80.62
2023-05-13T05:21:54.695Z,80.32
2023-05-13T05:22:54.610Z,79.87
2023-05-13T05:23:54.640Z,79.57
2023-05-13T05:24:54.602Z,79.46
2023-05-13T05:26:00.821Z,79.66
2023-05-13T05:26:54.580Z,79.39
2023-05-13T05:27:54.594Z,79.66
2023-05-13T05:28:54.565Z,79.57
2023-05-13T05:29:54.563Z,79.57
2023-05-13T05:30:54.548Z,79.12
2023-05-13T05:31:54.603Z,79.02
2023-05-13T05:32:54.543Z,78.61
2023-05-13T05:33:54.531Z,78.85
2023-05-13T05:34:54.507Z,79.16
2023-05-13T05:35:54.496Z,79.57
2023-05-13T05:36:54.473Z,79.36
2023-05-13T05:37:54.482Z,79.12
2023-05-13T05:38:54.560Z,79.43
2023-05-13T05:39:54.462Z,79.12
2023-05-13T05:40:54.441Z,79.12
2023-05-13T05:41:54.454Z,79.02
2023-05-13T05:42:54.426Z,78.88
2023-05-13T05:43:54.449Z,78.47
2023-05-13T05:44:54.389Z,77.92
2023-05-13T05:45:54.437Z,77.72
2023-05-13T05:46:54.380Z,76.70
2023-05-13T05:47:54.431Z,77.41
2023-05-13T05:48:54.332Z,77.21
2023-05-13T05:49:54.379Z,77.41
2023-05-13T05:50:54.322Z,77.34
2023-05-13T05:51:54.336Z,77.65
2023-05-13T05:52:54.314Z,77.65
2023-05-13T05:54:09.826Z,77.55
2023-05-13T05:54:54.309Z,77.86
2023-05-13T05:55:54.304Z,77.62
2023-05-13T05:56:54.256Z,76.25
2023-05-13T05:57:54.960Z,75.60
2023-05-13T05:58:54.237Z,74.45
2023-05-13T05:59:54.279Z,73.40
2023-05-13T06:00:54.221Z,73.40
2023-05-13T06:01:54.233Z,72.75
2023-05-13T06:02:54.251Z,72.55
2023-05-13T06:03:55.148Z,72.08
2023-05-13T06:04:54.207Z,72.14
2023-05-13T06:05:54.197Z,72.25
2023-05-13T06:06:54.232Z,72.45
2023-05-13T06:07:54.172Z,72.28
2023-05-13T06:08:54.144Z,72.99
2023-05-13T06:09:54.167Z,72.86
2023-05-13T06:10:54.124Z,72.65
2023-05-13T06:11:54.164Z,72.14
2023-05-13T06:12:54.114Z,72.45
2023-05-13T06:13:54.112Z,72.25
2023-05-13T06:14:54.065Z,71.53
2023-05-13T06:15:54.149Z,71.02
2023-05-13T06:16:55.670Z,71.30
2023-05-13T06:17:54.111Z,70.38
2023-05-13T06:18:54.076Z,69.53
2023-05-13T06:19:54.067Z,68.28
2023-05-13T06:20:54.006Z,67.88
2023-05-13T06:21:54.073Z,67.27
2023-05-13T06:22:53.995Z,66.76
2023-05-13T06:23:54.004Z,66.25
2023-05-13T06:24:53.970Z,66.55
2023-05-13T06:25:53.983Z,66.15
2023-05-13T06:26:53.953Z,65.84
2023-05-13T06:27:54.003Z,66.15
2023-05-13T06:28:53.931Z,66.25
2023-05-13T06:29:53.937Z,66.25
2023-05-13T06:30:53.970Z,65.91
2023-05-13T06:31:53.929Z,65.71
2023-05-13T06:33:01.501Z,65.20
2023-05-13T06:33:53.930Z,64.79
2023-05-13T06:34:55.864Z,64.36
2023-05-13T06:35:53.885Z,63.75
2023-05-13T06:36:53.841Z,63.34
2023-05-13T06:37:53.848Z,63.58
2023-05-13T06:38:53.844Z,63.65
2023-05-13T06:39:53.828Z,63.65
2023-05-13T06:40:53.796Z,63.55
2023-05-13T06:41:53.806Z,63.32
2023-05-13T06:42:59.084Z,63.24
2023-05-13T06:43:53.794Z,63.32
2023-05-13T06:44:53.787Z,63.32
2023-05-13T06:45:53.770Z,62.91
2023-05-13T06:46:53.768Z,62.71
2023-05-13T06:47:53.792Z,62.81
2023-05-13T06:48:53.797Z,62.51
2023-05-13T06:49:53.720Z,62.37
2023-05-13T06:50:53.730Z,61.97
2023-05-13T06:51:53.739Z,61.87
2023-05-13T06:52:53.689Z,62.07
2023-05-13T06:53:54.420Z,61.87
2023-05-13T06:54:53.652Z,62.17
2023-05-13T06:55:53.669Z,62.27
2023-05-13T06:56:53.668Z,62.24
2023-05-13T06:57:53.650Z,62.27
2023-05-13T06:58:53.605Z,62.78
2023-05-13T06:59:53.661Z,62.24
2023-05-13T07:00:53.637Z,62.04
2023-05-13T07:01:53.591Z,62.14
2023-05-13T07:02:53.597Z,61.83
2023-05-13T07:03:53.647Z,61.94
2023-05-13T07:04:53.559Z,62.14
2023-05-13T07:05:53.554Z,62.11
2023-05-13T07:06:53.522Z,62.34
2023-05-13T07:07:53.559Z,62.52
2023-05-13T07:08:53.533Z,61.51
2023-05-13T07:10:00.059Z,61.30
2023-05-13T07:10:53.473Z,61.20
2023-05-13T07:11:53.505Z,61.40
2023-05-13T07:12:53.451Z,61.51
2023-05-13T07:13:53.499Z,61.00
2023-05-13T07:14:53.428Z,61.37
2023-05-13T07:15:53.434Z,61.37
2023-05-13T07:16:53.449Z,61.37
2023-05-13T07:17:53.430Z,61.98
2023-05-13T07:18:53.455Z,61.75
2023-05-13T07:19:53.411Z,61.35
2023-05-13T07:20:53.389Z,61.14
2023-05-13T07:21:53.397Z,60.63
2023-05-13T07:22:53.344Z,60.13
2023-05-13T07:23:53.377Z,60.43
2023-05-13T07:24:53.312Z,60.84
2023-05-13T07:25:53.335Z,61.04
2023-05-13T07:26:53.299Z,60.94
2023-05-13T07:27:53.321Z,61.04
2023-05-13T07:28:53.307Z,60.63
2023-05-13T07:29:53.290Z,60.94
2023-05-13T07:30:53.380Z,61.04
2023-05-13T07:31:53.276Z,61.65
2023-05-13T07:32:54.138Z,61.01
2023-05-13T07:33:53.270Z,60.91
2023-05-13T07:34:53.203Z,60.41
2023-05-13T07:35:53.257Z,60.10
2023-05-13T07:36:53.203Z,60.53
2023-05-13T07:37:53.203Z,60.81
2023-05-13T07:38:53.166Z,60.50
2023-05-13T07:39:53.186Z,60.91
2023-05-13T07:40:53.153Z,60.88
2023-05-13T07:41:53.179Z,60.58
2023-05-13T07:42:53.128Z,60.48
2023-05-13T07:43:53.418Z,60.35
2023-05-13T07:44:53.106Z,59.54
2023-05-13T07:45:53.119Z,59.44
2023-05-13T07:46:53.132Z,58.91
2023-05-13T07:47:53.143Z,59.00
2023-05-13T07:48:53.088Z,59.58
2023-05-13T07:49:53.069Z,59.08
2023-05-13T07:50:53.084Z,59.48
2023-05-13T07:51:53.064Z,59.28
2023-05-13T07:52:53.037Z,58.14
2023-05-13T07:53:53.061Z,57.74
2023-05-13T07:54:53.002Z,57.14
2023-05-13T07:55:53.036Z,57.54
2023-05-13T07:56:53.012Z,57.84
2023-05-13T07:57:52.994Z,58.17
2023-05-13T07:58:52.951Z,58.27
2023-05-13T07:59:52.993Z,58.37
2023-05-13T08:00:52.948Z,57.84
2023-05-13T08:01:52.974Z,57.54
2023-05-13T08:02:52.989Z,57.34
2023-05-13T08:03:53.116Z,57.23
2023-05-13T08:04:52.915Z,57.64
2023-05-13T08:05:52.903Z,57.81
2023-05-13T08:06:52.904Z,57.91
2023-05-13T08:07:52.882Z,57.91
2023-05-13T08:08:52.888Z,57.51
2023-05-13T08:09:52.856Z,57.81
2023-05-13T08:10:52.832Z,57.21
2023-05-13T08:11:52.859Z,57.51
2023-05-13T08:12:52.805Z,57.71
2023-05-13T08:13:52.832Z,58.01
2023-05-13T08:14:52.788Z,57.91
2023-05-13T08:15:52.826Z,58.52
2023-05-13T08:16:52.838Z,58.52
2023-05-13T08:17:52.807Z,57.98
2023-05-13T08:18:52.808Z,57.48
2023-05-13T08:19:52.770Z,58.09
2023-05-13T08:20:52.738Z,57.35
2023-05-13T08:21:52.776Z,57.56
2023-05-13T08:22:52.694Z,57.03
2023-05-13T08:23:52.762Z,57.03
2023-05-13T08:24:52.690Z,56.62
2023-05-13T08:25:52.693Z,56.29
2023-05-13T08:26:52.680Z,55.99
2023-05-13T08:27:53.366Z,55.41
2023-05-13T08:28:54.743Z,54.61
2023-05-13T08:29:52.676Z,53.40
2023-05-13T08:30:52.611Z,53.30
2023-05-13T08:31:52.777Z,54.41
2023-05-13T08:32:52.712Z,54.79
2023-05-13T08:33:52.615Z,54.38
2023-05-13T08:34:52.586Z,54.38
2023-05-13T08:35:52.581Z,53.88
2023-05-13T08:36:52.555Z,53.67
2023-05-13T08:37:52.637Z,53.88
2023-05-13T08:38:52.523Z,53.98
2023-05-13T08:39:52.545Z,53.14
2023-05-13T08:40:52.577Z,53.75
2023-05-13T08:41:52.493Z,54.15
2023-05-13T08:42:52.472Z,53.45
2023-05-13T08:43:52.532Z,53.65
2023-05-13T08:44:52.493Z,53.85
2023-05-13T08:45:52.513Z,52.62
2023-05-13T08:46:52.515Z,51.81
2023-05-13T08:47:52.478Z,51.11
2023-05-13T08:48:52.428Z,51.21
2023-05-13T08:49:52.436Z,49.77
2023-05-13T08:50:52.400Z,49.25
2023-05-13T08:51:52.433Z,48.75
2023-05-13T08:52:52.389Z,48.43
2023-05-13T08:53:52.404Z,48.44
2023-05-13T08:54:52.373Z,48.55
2023-05-13T08:55:52.377Z,48.75
2023-05-13T08:56:52.358Z,49.55
2023-05-13T08:57:52.346Z,48.75
2023-05-13T08:58:52.341Z,48.63
2023-05-13T08:59:52.330Z,47.92
2023-05-13T09:00:52.313Z,45.21
2023-05-13T09:01:52.582Z,46.19
2023-05-13T09:02:52.350Z,44.68
2023-05-13T09:03:52.309Z,43.06
2023-05-13T09:04:52.311Z,43.56
2023-05-13T09:05:52.284Z,42.13
2023-05-13T09:06:52.263Z,42.72
2023-05-13T09:07:52.251Z,42.19
2023-05-13T09:08:52.238Z,43.10
2023-05-13T09:09:52.209Z,40.81
2023-05-13T09:11:10.235Z,41.23
2023-05-13T09:12:03.124Z,41.13
2023-05-13T09:12:52.214Z,41.53
2023-05-13T09:13:52.173Z,41.83
2023-05-13T09:14:52.214Z,42.13
2023-05-13T09:15:52.231Z,42.52
2023-05-13T09:16:52.173Z,41.11
2023-05-13T09:17:52.245Z,40.69
2023-05-13T09:18:52.241Z,40.59
2023-05-13T09:19:52.122Z,40.19
2023-05-13T09:20:52.136Z,39.57
2023-05-13T13:28:49.906Z,40.45
2023-05-13T13:29:50.867Z,40.37
2023-05-13T13:30:50.924Z,42.18
2023-05-13T13:31:50.878Z,40.49
2023-05-13T13:32:50.938Z,42.72
2023-05-13T13:33:50.840Z,41.91
2023-05-13T13:34:50.841Z,42.61
2023-05-13T13:35:50.825Z,40.19
2023-05-13T13:36:50.838Z,40.17
2023-05-13T13:37:50.772Z,40.75
2023-05-13T13:38:50.835Z,40.33
2023-05-13T13:39:50.768Z,38.71
2023-05-13T13:40:50.769Z,37.71
2023-05-13T13:41:50.756Z,38.20
2023-05-13T13:42:50.764Z,39.31
2023-05-13T13:43:50.761Z,38.91
2023-05-13T13:44:50.741Z,39.25
2023-05-13T13:45:50.830Z,39.87
2023-05-13T13:46:50.709Z,39.27
2023-05-13T13:47:50.737Z,38.59
2023-05-13T13:48:50.732Z,39.81
2023-05-13T13:49:50.660Z,39.71
2023-05-13T13:50:52.686Z,40.53
2023-05-13T13:51:50.657Z,40.13
2023-05-13T13:52:50.638Z,42.03
2023-05-13T13:53:50.637Z,40.83
2023-05-13T13:54:50.678Z,43.94
2023-05-13T13:55:50.658Z,39.73
2023-05-13T13:56:50.643Z,40.13
2023-05-13T13:57:50.643Z,40.91
2023-05-13T13:58:50.593Z,41.69
2023-05-13T13:59:50.579Z,38.49
2023-05-13T14:00:50.577Z,38.07
2023-05-13T14:01:50.610Z,36.93
2023-05-13T14:02:50.658Z,36.93
2023-05-13T14:03:50.674Z,35.81
2023-05-13T14:04:50.528Z,36.21
2023-05-13T14:05:50.536Z,34.63
2023-05-13T14:06:50.510Z,35.83
2023-05-13T14:07:50.489Z,37.01
2023-05-13T14:08:50.518Z,37.59
2023-05-13T14:09:50.454Z,37.70
2023-05-13T14:10:50.479Z,36.88
2023-05-13T14:11:50.496Z,37.88
2023-05-13T14:12:50.467Z,35.38
2023-05-13T14:13:50.432Z,35.18
2023-05-13T14:14:50.429Z,34.58
2023-05-13T14:15:50.409Z,34.58
2023-05-13T14:16:50.431Z,34.48
2023-05-13T14:17:50.452Z,34.98
2023-05-13T14:18:50.398Z,37.16
2023-05-13T14:19:50.368Z,37.24
2023-05-13T14:20:50.397Z,34.55
2023-05-13T14:21:50.328Z,35.05
2023-05-13T14:22:50.391Z,34.05
2023-05-13T14:23:50.340Z,35.85
2023-05-13T14:24:50.332Z,33.33
2023-05-13T14:25:50.303Z,34.76
2023-05-13T14:26:50.345Z,36.18
2023-05-13T14:27:50.269Z,36.08
2023-05-13T14:28:50.286Z,37.86
2023-05-13T14:29:50.254Z,35.44
2023-05-13T14:30:50.278Z,36.84
2023-05-13T14:31:50.421Z,38.06
2023-05-13T14:32:50.340Z,36.68
2023-05-13T14:33:50.208Z,36.19
2023-05-13T14:34:50.276Z,34.91
2023-05-13T14:35:50.213Z,36.11
2023-05-13T14:36:50.523Z,35.93
2023-05-13T14:37:50.184Z,35.94
2023-05-13T14:38:50.425Z,35.86
2023-05-13T14:39:50.418Z,36.46
2023-05-13T14:40:50.202Z,34.96
2023-05-13T14:41:50.878Z,35.38
2023-05-13T14:42:50.162Z,36.08
2023-05-13T14:43:50.328Z,35.88
2023-05-13T14:44:50.157Z,36.48
2023-05-13T14:45:50.090Z,36.28
2023-05-13T14:46:50.277Z,36.58
2023-05-13T14:47:50.164Z,37.28
2023-05-13T14:48:50.081Z,37.28
2023-05-13T14:49:50.056Z,36.98
2023-05-13T14:50:50.059Z,36.98
2023-05-13T14:51:50.037Z,37.68
2023-05-13T14:52:50.102Z,38.09
2023-05-13T14:53:50.002Z,38.59
2023-05-13T14:54:50.023Z,39.79
2023-05-13T14:55:51.433Z,40.71
2023-05-13T14:56:50.105Z,41.23
2023-05-13T14:57:50.023Z,41.93
2023-05-13T14:58:49.969Z,42.25
2023-05-13T14:59:49.992Z,42.46
2023-05-13T15:00:49.956Z,42.74
2023-05-13T15:01:49.951Z,42.21
2023-05-13T15:02:50.066Z,42.52
2023-05-13T15:03:49.910Z,41.29
2023-05-13T15:04:49.989Z,42.07
2023-05-13T15:05:49.929Z,41.75
2023-05-13T15:06:49.905Z,41.35
2023-05-13T15:07:49.877Z,40.63
2023-05-13T15:08:49.885Z,41.21
2023-05-13T15:09:49.907Z,40.52
2023-05-13T15:10:49.868Z,39.79
2023-05-13T15:11:49.848Z,40.31
2023-05-13T15:12:49.925Z,41.33
2023-05-13T15:13:49.809Z,41.85
2023-05-13T15:14:49.823Z,42.05
2023-05-13T15:15:49.805Z,41.77
2023-05-13T15:16:49.827Z,41.27
2023-05-13T15:17:49.764Z,40.17
2023-05-13T15:18:49.898Z,41.19
2023-05-13T15:19:49.782Z,41.09
2023-05-13T15:20:49.766Z,40.15
2023-05-13T15:21:49.730Z,39.25
2023-05-13T15:23:04.674Z,39.07
2023-05-13T15:23:49.755Z,39.15
2023-05-13T15:24:49.738Z,38.15
2023-05-13T15:25:49.679Z,38.55
2023-05-13T15:26:49.719Z,38.45
2023-05-13T15:27:49.721Z,39.07
2023-05-13T15:28:49.700Z,38.59
2023-05-13T15:29:49.633Z,39.39
2023-05-13T15:30:49.744Z,39.21
2023-05-13T15:31:49.699Z,39.11
2023-05-13T15:32:49.704Z,39.21
2023-05-13T15:33:49.664Z,39.61
2023-05-13T15:34:49.747Z,39.42
2023-05-13T15:35:49.582Z,39.93
2023-05-13T15:36:49.626Z,40.83
2023-05-13T15:37:49.606Z,40.83
2023-05-13T15:38:49.646Z,41.85
2023-05-13T15:39:49.550Z,42.35
2023-05-13T15:40:49.562Z,42.46
2023-05-13T15:41:49.539Z,43.16
2023-05-13T15:42:49.603Z,43.38
2023-05-13T15:43:49.526Z,43.80
2023-05-13T15:44:49.546Z,44.31
2023-05-13T15:45:49.556Z,44.31
2023-05-13T15:46:49.835Z,44.51
2023-05-13T15:47:49.626Z,44.51
2023-05-13T15:48:49.487Z,44.60
2023-05-13T15:49:49.450Z,44.40
2023-05-13T15:50:49.507Z,44.71
2023-05-13T15:51:49.467Z,44.60
2023-05-13T15:52:49.434Z,44.71
2023-05-13T15:53:49.441Z,45.31
2023-05-13T15:54:49.419Z,44.91
2023-05-13T15:55:49.520Z,44.81
2023-05-13T15:56:49.405Z,45.21
2023-05-13T15:57:50.460Z,45.21
2023-05-13T15:58:49.368Z,45.51
2023-05-13T15:59:49.390Z,45.61
2023-05-13T16:00:49.372Z,45.31
2023-05-13T16:01:49.429Z,45.41
2023-05-13T16:02:49.404Z,45.51
2023-05-13T16:03:49.321Z,44.81
2023-05-13T16:04:49.322Z,44.91
2023-05-13T16:05:49.318Z,45.18
2023-05-13T16:06:49.312Z,44.89
2023-05-13T16:07:49.271Z,44.99
2023-05-13T16:08:49.314Z,45.59
2023-05-13T16:09:49.257Z,44.89
2023-05-13T16:10:49.291Z,44.89
2023-05-13T16:11:49.240Z,44.36
2023-05-13T16:12:49.251Z,44.46
2023-05-13T16:13:49.256Z,44.76
2023-05-13T16:14:49.253Z,44.56
2023-05-13T16:15:49.225Z,44.67
2023-05-13T16:16:49.262Z,44.67
2023-05-13T16:17:49.212Z,44.46
2023-05-13T16:18:49.201Z,44.54
2023-05-13T16:19:49.168Z,44.14
2023-05-13T16:20:49.156Z,43.64
2023-05-13T16:21:49.125Z,42.76
2023-05-13T16:22:49.147Z,43.04
2023-05-13T16:23:49.115Z,42.94
2023-05-13T16:24:49.144Z,44.84
2023-05-13T16:25:49.074Z,42.24
2023-05-13T16:26:49.091Z,43.32
2023-05-13T16:27:49.090Z,39.81
2023-05-13T16:28:49.089Z,40.11
2023-05-13T16:29:49.085Z,41.01
2023-05-13T16:30:49.082Z,44.92
2023-05-13T16:31:49.055Z,42.52
2023-05-13T16:32:49.130Z,42.21
2023-05-13T16:33:48.994Z,40.11
2023-05-13T16:34:49.015Z,39.51
2023-05-13T16:35:49.007Z,40.61
2023-05-13T16:36:48.987Z,42.21
2023-05-13T16:37:48.944Z,40.51
2023-05-13T16:38:48.973Z,41.01
2023-05-13T16:39:48.955Z,39.81
2023-05-13T16:40:49.017Z,39.53
2023-05-13T16:41:49.004Z,39.53
2023-05-13T16:42:48.932Z,40.03
2023-05-13T16:43:48.882Z,41.63
2023-05-13T16:44:48.926Z,41.23
2023-05-13T16:45:48.888Z,41.83
2023-05-13T16:46:48.882Z,39.62
2023-05-13T16:47:48.853Z,39.62
2023-05-13T16:48:48.948Z,39.83
2023-05-13T16:49:48.848Z,39.83
2023-05-13T16:50:48.921Z,39.53
2023-05-13T16:51:48.834Z,39.32
2023-05-13T16:52:48.820Z,39.62
2023-05-13T16:53:48.986Z,39.42
2023-05-13T16:54:48.801Z,39.95
2023-05-13T16:55:48.762Z,38.72
2023-05-13T16:56:48.820Z,39.14
2023-05-13T16:57:48.754Z,39.04
2023-05-13T16:58:48.769Z,39.54
2023-05-13T16:59:48.739Z,39.25